createdAt,value
2022-11-02T00:00:50.088Z,8.63
2022-11-02T00:03:30.658Z,8.57
2022-11-02T00:05:59.645Z,8.50
2022-11-02T00:08:29.262Z,8.45
2022-11-02T00:10:57.805Z,8.42
2022-11-02T00:13:26.315Z,8.40
2022-11-02T00:15:55.108Z,8.36
2022-11-02T00:18:23.745Z,8.31
2022-11-02T00:20:52.333Z,8.29
2022-11-02T00:23:20.768Z,8.31
2022-11-02T00:25:51.198Z,8.31
2022-11-02T00:28:19.885Z,8.31
2022-11-02T00:30:48.512Z,8.30
2022-11-02T00:33:16.967Z,8.27
2022-11-02T00:35:46.502Z,8.24
2022-11-02T00:38:15.208Z,8.20
2022-11-02T00:40:43.833Z,8.18
2022-11-02T00:43:12.966Z,8.20
2022-11-02T00:45:42.161Z,8.18
2022-11-02T00:48:11.470Z,8.10
2022-11-02T00:50:41.605Z,8.03
2022-11-02T00:53:10.822Z,7.94
2022-11-02T00:55:41.638Z,7.86
2022-11-02T00:58:10.343Z,7.79
2022-11-02T01:00:38.837Z,7.76
2022-11-02T01:03:07.539Z,7.74
2022-11-02T01:05:37.947Z,7.73
2022-11-02T01:08:06.859Z,7.67
2022-11-02T01:10:35.671Z,7.62
2022-11-02T01:13:04.170Z,7.54
2022-11-02T01:15:33.134Z,7.49
2022-11-02T01:18:01.895Z,7.45
2022-11-02T01:20:30.714Z,7.42
2022-11-02T01:23:01.816Z,7.38
2022-11-02T01:25:30.286Z,7.34
2022-11-02T01:27:58.840Z,7.29
2022-11-02T01:30:27.367Z,7.23
2022-11-02T01:32:56.004Z,7.19
2022-11-02T01:35:24.486Z,7.20
2022-11-02T01:37:52.923Z,7.23
2022-11-02T01:40:21.704Z,7.23
2022-11-02T01:42:50.279Z,7.21
2022-11-02T01:45:18.900Z,7.17
2022-11-02T01:47:48.855Z,7.13
2022-11-02T01:50:26.456Z,7.10
2022-11-02T01:52:55.007Z,7.07
2022-11-02T01:55:30.796Z,7.04
2022-11-02T01:58:03.791Z,7.05
2022-11-02T02:00:34.325Z,7.05
2022-11-02T02:03:10.358Z,7.03
2022-11-02T02:05:43.518Z,7.02
2022-11-02T02:08:15.026Z,6.96
2022-11-02T02:10:43.600Z,6.89
2022-11-02T02:13:12.776Z,6.86
2022-11-02T02:16:12.122Z,6.84
2022-11-02T02:18:52.262Z,6.86
2022-11-02T02:21:57.707Z,6.89
2022-11-02T02:24:51.010Z,6.87
2022-11-02T02:27:31.985Z,6.80
2022-11-02T02:30:10.487Z,6.74
2022-11-02T02:33:05.397Z,6.68
2022-11-02T02:35:55.849Z,6.66
2022-11-02T02:38:44.221Z,6.65
2022-11-02T02:41:26.051Z,6.64
2022-11-02T02:43:56.701Z,6.59
2022-11-02T02:46:58.047Z,6.54
2022-11-02T02:49:38.574Z,6.49
2022-11-02T02:52:08.137Z,6.43
2022-11-02T02:54:43.095Z,6.40
2022-11-02T02:57:18.168Z,6.40
2022-11-02T02:59:49.087Z,6.40
2022-11-02T03:02:27.732Z,6.39
2022-11-02T03:04:56.288Z,6.41
2022-11-02T03:07:34.940Z,6.43
2022-11-02T03:10:13.256Z,6.41
2022-11-02T03:13:00.259Z,6.43
2022-11-02T03:15:43.651Z,6.45
2022-11-02T03:18:34.515Z,6.47
2022-11-02T03:21:03.833Z,6.47
2022-11-02T03:23:50.671Z,6.46
2022-11-02T03:26:50.923Z,6.43
2022-11-02T03:29:28.196Z,6.41
2022-11-02T03:32:05.462Z,6.41
2022-11-02T03:34:44.394Z,6.41
2022-11-02T03:37:27.878Z,6.41
2022-11-02T03:40:29.805Z,6.41
2022-11-02T03:43:00.191Z,6.41
2022-11-02T03:45:36.107Z,6.43
2022-11-02T03:51:39.829Z,6.57
2022-11-02T03:54:27.904Z,6.56
2022-11-02T03:57:00.133Z,6.53
2022-11-02T03:59:32.749Z,6.49
2022-11-02T04:02:02.774Z,6.44
2022-11-02T04:04:31.794Z,6.42
2022-11-02T04:07:00.301Z,6.38
2022-11-02T04:09:29.000Z,6.33
2022-11-02T04:12:15.968Z,6.29
2022-11-02T04:14:44.678Z,6.24
2022-11-02T04:18:22.033Z,6.18
2022-11-02T04:20:51.702Z,6.16
2022-11-02T04:23:38.917Z,6.15
2022-11-02T04:26:07.413Z,6.15
2022-11-02T04:28:43.224Z,6.13
2022-11-02T04:31:13.246Z,6.12
2022-11-02T04:33:43.014Z,6.11
2022-11-02T04:36:18.422Z,6.11
2022-11-02T04:38:51.593Z,6.14
2022-11-02T04:41:43.263Z,6.20
2022-11-02T04:44:19.634Z,6.27
2022-11-02T04:46:56.646Z,6.33
2022-11-02T04:49:27.582Z,6.41
2022-11-02T04:51:56.383Z,6.49
2022-11-02T04:54:26.290Z,6.56
2022-11-02T04:56:58.183Z,6.60
2022-11-02T04:59:27.149Z,6.59
2022-11-02T05:01:55.965Z,6.58
2022-11-02T05:04:24.628Z,6.56
2022-11-02T05:06:56.380Z,6.52
2022-11-02T05:09:32.404Z,6.50
2022-11-02T05:12:08.559Z,6.49
2022-11-02T05:14:37.288Z,6.51
2022-11-02T05:17:05.839Z,6.54
2022-11-02T05:19:35.302Z,6.59
2022-11-02T05:22:04.144Z,6.62
2022-11-02T05:24:32.969Z,6.64
2022-11-02T05:27:02.332Z,6.65
2022-11-02T05:29:31.246Z,6.69
2022-11-02T05:31:59.740Z,6.70
2022-11-02T05:34:29.275Z,6.71
2022-11-02T05:36:57.997Z,6.74
2022-11-02T05:39:26.826Z,6.77
2022-11-02T05:41:55.380Z,6.81
2022-11-02T05:44:23.923Z,6.84
2022-11-02T05:46:52.564Z,6.87
2022-11-02T05:49:21.510Z,6.92
2022-11-02T05:51:50.025Z,6.98
2022-11-02T05:54:18.747Z,7.04
2022-11-02T05:56:47.358Z,7.07
2022-11-02T05:59:15.948Z,7.11
2022-11-02T06:01:44.726Z,7.19
2022-11-02T06:04:13.434Z,7.28
2022-11-02T06:06:50.505Z,7.37
2022-11-02T06:09:19.086Z,7.46
2022-11-02T06:11:47.800Z,7.52
2022-11-02T06:14:16.205Z,7.58
2022-11-02T06:16:44.862Z,7.64
2022-11-02T06:21:45.878Z,7.78
2022-11-02T06:24:17.086Z,7.84
2022-11-02T06:26:47.104Z,7.92
2022-11-02T06:29:15.763Z,7.97
2022-11-02T06:31:44.421Z,8.00
2022-11-02T06:34:13.102Z,8.05
2022-11-02T06:36:41.599Z,8.07
2022-11-02T06:39:10.139Z,8.12
2022-11-02T06:41:38.736Z,8.19
2022-11-02T06:44:07.567Z,8.28
2022-11-02T06:46:36.260Z,8.38
2022-11-02T06:49:04.753Z,8.46
2022-11-02T06:51:33.480Z,8.51
2022-11-02T06:54:07.437Z,8.56
2022-11-02T06:56:37.144Z,8.63
2022-11-02T06:59:05.611Z,8.70
2022-11-02T07:01:35.542Z,8.79
2022-11-02T07:04:04.609Z,8.88
2022-11-02T07:06:33.324Z,8.98
2022-11-02T07:09:02.004Z,9.05
2022-11-02T07:11:30.691Z,9.14
2022-11-02T07:13:59.369Z,9.25
2022-11-02T07:16:28.008Z,9.34
2022-11-02T07:18:56.586Z,9.43
2022-11-02T07:21:25.247Z,9.51
2022-11-02T07:23:53.738Z,9.60
2022-11-02T07:26:22.641Z,9.70
2022-11-02T07:28:55.232Z,9.80
2022-11-02T07:31:28.047Z,9.89
2022-11-02T07:37:09.283Z,10.17
2022-11-02T07:39:37.850Z,10.26
2022-11-02T07:42:08.006Z,10.41
2022-11-02T07:44:36.710Z,10.56
2022-11-02T07:47:05.594Z,10.73
2022-11-02T07:49:34.206Z,10.89
2022-11-02T07:52:02.780Z,11.03
2022-11-02T07:54:31.391Z,11.22
2022-11-02T07:57:00.266Z,11.36
2022-11-02T07:59:29.109Z,11.52
2022-11-02T08:01:57.855Z,11.69
2022-11-02T08:04:26.972Z,11.82
2022-11-02T08:06:58.877Z,11.93
2022-11-02T08:09:27.468Z,12.03
2022-11-02T08:12:10.474Z,12.11
2022-11-02T08:14:39.164Z,12.20
2022-11-02T08:17:07.789Z,12.30
2022-11-02T08:19:36.667Z,12.40
2022-11-02T08:22:05.482Z,12.52
2022-11-02T08:24:34.169Z,12.65
2022-11-02T08:27:02.899Z,12.75
2022-11-02T08:29:32.216Z,12.86
2022-11-02T08:32:01.179Z,12.97
2022-11-02T08:34:29.873Z,13.06
2022-11-02T08:36:58.576Z,13.16
2022-11-02T08:39:27.173Z,13.28
2022-11-02T08:41:55.828Z,13.42
2022-11-02T08:44:24.624Z,13.65
2022-11-02T08:49:23.122Z,14.06
2022-11-02T08:51:51.895Z,14.20
2022-11-02T08:54:20.677Z,14.30
2022-11-02T08:56:49.268Z,14.39
2022-11-02T08:59:17.957Z,14.50
2022-11-02T09:01:47.007Z,14.61
2022-11-02T09:04:16.194Z,14.71
2022-11-02T09:06:45.124Z,14.79
2022-11-02T09:09:13.797Z,14.86
2022-11-02T09:11:42.432Z,14.92
2022-11-02T09:14:11.419Z,14.98
2022-11-02T09:16:41.600Z,15.06
2022-11-02T09:19:10.750Z,15.14
2022-11-02T09:21:39.400Z,15.22
2022-11-02T09:24:08.792Z,15.30
2022-11-02T09:26:37.668Z,15.39
2022-11-02T09:29:06.464Z,15.50
2022-11-02T09:31:35.253Z,15.59
2022-11-02T09:34:04.010Z,15.66
2022-11-02T09:36:32.777Z,15.73
2022-11-02T09:39:01.666Z,15.82
2022-11-02T09:41:38.592Z,15.90
2022-11-02T09:44:28.491Z,15.94
2022-11-02T09:47:39.667Z,15.97
2022-11-02T09:49:46.621Z,15.97
2022-11-02T09:52:58.262Z,15.98
2022-11-02T09:55:32.611Z,16.04
2022-11-02T09:58:14.100Z,16.13
2022-11-02T10:00:48.193Z,16.26
2022-11-02T10:03:20.343Z,16.35
2022-11-02T10:06:14.239Z,16.39
2022-11-02T10:09:51.702Z,16.40
2022-11-02T10:12:58.585Z,16.41
2022-11-02T10:15:41.498Z,16.38
2022-11-02T10:18:19.361Z,16.33
2022-11-02T10:21:07.045Z,16.31
2022-11-02T10:24:04.161Z,16.31
2022-11-02T10:26:36.893Z,16.33
2022-11-02T10:29:40.557Z,16.39
2022-11-02T10:32:13.442Z,16.48
2022-11-02T10:34:42.824Z,16.55
2022-11-02T10:38:02.829Z,16.66
2022-11-02T10:40:51.183Z,16.75
2022-11-02T10:43:28.564Z,16.88
2022-11-02T10:46:09.431Z,16.94
2022-11-02T10:49:05.497Z,17.00
2022-11-02T10:51:34.075Z,17.05
2022-11-02T10:54:03.063Z,17.05
2022-11-02T10:56:33.310Z,17.05
2022-11-02T11:09:55.733Z,17.31
2022-11-02T11:12:32.424Z,17.25
2022-11-02T11:20:42.478Z,17.41
2022-11-02T11:23:21.177Z,17.42
2022-11-02T11:26:09.829Z,17.41
2022-11-02T11:28:57.648Z,17.34
2022-11-02T11:31:26.847Z,17.27
2022-11-02T11:33:58.052Z,17.23
2022-11-02T11:36:36.012Z,17.20
2022-11-02T11:39:26.373Z,17.17
2022-11-02T11:41:55.711Z,17.16
2022-11-02T11:44:24.927Z,17.14
2022-11-02T11:46:57.682Z,17.11
2022-11-02T11:49:48.172Z,17.09
2022-11-02T11:52:32.651Z,17.06
2022-11-02T11:55:24.100Z,17.05
2022-11-02T12:01:14.894Z,17.09
2022-11-02T12:04:01.568Z,17.05
2022-11-02T12:06:48.373Z,17.02
2022-11-02T12:09:50.593Z,17.01
2022-11-02T12:12:29.455Z,16.99
2022-11-02T12:15:44.908Z,16.96
2022-11-02T12:19:04.079Z,16.96
2022-11-02T12:21:55.615Z,16.96
2022-11-02T12:24:34.684Z,16.96
2022-11-02T12:27:29.515Z,16.94
2022-11-02T12:30:12.032Z,16.91
2022-11-02T12:33:02.789Z,16.87
2022-11-02T12:36:36.920Z,16.83
2022-11-02T12:39:13.605Z,16.78
2022-11-02T12:41:53.651Z,16.72
2022-11-02T12:45:05.174Z,16.59
2022-11-02T12:47:42.620Z,16.55
2022-11-02T12:51:05.490Z,16.56
2022-11-02T12:53:44.149Z,16.52
2022-11-02T12:56:23.957Z,16.50
2022-11-02T12:58:53.272Z,16.49
2022-11-02T13:01:37.232Z,16.47
2022-11-02T13:05:01.451Z,16.43
2022-11-02T13:07:41.410Z,16.39
2022-11-02T13:10:21.380Z,16.36
2022-11-02T13:12:54.191Z,16.35
2022-11-02T13:15:24.900Z,16.34
2022-11-02T13:18:00.846Z,16.30
2022-11-02T13:20:57.980Z,16.29
2022-11-02T13:23:56.712Z,16.29
2022-11-02T13:26:41.974Z,16.28
2022-11-02T13:29:25.036Z,16.27
2022-11-02T13:32:07.093Z,16.26
2022-11-02T13:34:44.895Z,16.26
2022-11-02T13:37:28.424Z,16.27
2022-11-02T13:40:01.866Z,16.27
2022-11-02T13:43:08.034Z,16.27
2022-11-02T13:46:12.557Z,16.24
2022-11-02T13:48:58.674Z,16.23
2022-11-02T13:51:42.981Z,16.23
2022-11-02T13:54:41.894Z,16.22
2022-11-02T13:57:50.088Z,16.18
2022-11-02T14:00:25.096Z,16.12
2022-11-02T14:03:08.380Z,16.08
2022-11-02T14:05:48.069Z,16.03
2022-11-02T14:08:36.226Z,16.01
2022-11-02T14:11:33.751Z,15.97
2022-11-02T14:14:21.999Z,15.93
2022-11-02T14:16:50.684Z,15.90
2022-11-02T14:19:50.352Z,15.88
2022-11-02T14:22:20.188Z,15.86
2022-11-02T14:24:49.671Z,15.82
2022-11-02T14:27:20.348Z,15.78
2022-11-02T14:29:55.833Z,15.76
2022-11-02T14:32:58.386Z,15.74
2022-11-02T14:35:38.661Z,15.72
2022-11-02T14:38:40.153Z,15.69
2022-11-02T14:41:28.651Z,15.64
2022-11-02T14:44:34.483Z,15.60
2022-11-02T14:47:15.761Z,15.59
2022-11-02T14:50:02.859Z,15.57
2022-11-02T14:52:36.237Z,15.53
2022-11-02T14:55:22.700Z,15.51
2022-11-02T14:58:11.068Z,15.49
2022-11-02T15:01:00.815Z,15.47
2022-11-02T15:03:34.514Z,15.44
2022-11-02T15:06:13.133Z,15.42
2022-11-02T15:08:55.356Z,15.40
2022-11-02T15:11:42.672Z,15.38
2022-11-02T15:14:36.307Z,15.38
2022-11-02T15:17:17.233Z,15.37
2022-11-02T15:19:49.816Z,15.34
2022-11-02T15:22:33.195Z,15.33
2022-11-02T15:25:09.267Z,15.32
2022-11-02T15:27:42.169Z,15.32
2022-11-02T15:30:17.372Z,15.31
2022-11-02T15:32:55.425Z,15.30
2022-11-02T15:35:42.032Z,15.29
2022-11-02T15:38:18.050Z,15.28
2022-11-02T15:41:22.316Z,15.27
2022-11-02T15:44:43.739Z,15.26
2022-11-02T15:47:41.396Z,15.25
2022-11-02T15:50:36.715Z,15.21
2022-11-02T15:53:38.013Z,15.14
2022-11-02T15:57:04.185Z,15.07
2022-11-02T16:00:01.576Z,15.03
2022-11-02T16:02:46.727Z,14.96
2022-11-02T16:05:28.117Z,14.90
2022-11-02T16:08:10.370Z,14.83
2022-11-02T16:10:40.116Z,14.78
2022-11-02T16:13:17.307Z,14.75
2022-11-02T16:15:49.144Z,14.70
2022-11-02T16:18:30.291Z,14.62
2022-11-02T16:21:02.570Z,14.56
2022-11-02T16:23:33.952Z,14.49
2022-11-02T16:26:07.910Z,14.45
2022-11-02T16:28:39.132Z,14.41
2022-11-02T16:31:18.022Z,14.36
2022-11-02T16:33:54.339Z,14.31
2022-11-02T16:36:32.360Z,14.25
2022-11-02T16:39:30.440Z,14.20
2022-11-02T16:42:00.002Z,14.15
2022-11-02T16:44:34.015Z,14.11
2022-11-02T16:47:09.846Z,14.06
2022-11-02T16:49:51.259Z,14.00
2022-11-02T16:52:34.435Z,13.95
2022-11-02T16:55:03.940Z,13.86
2022-11-02T16:57:45.065Z,13.79
2022-11-02T17:00:20.782Z,13.73
2022-11-02T17:02:49.520Z,13.69
2022-11-02T17:05:24.052Z,13.65
2022-11-02T17:20:39.827Z,13.65
2022-11-02T17:23:30.147Z,13.55
2022-11-02T17:26:25.009Z,13.43
2022-11-02T17:29:02.788Z,13.35
2022-11-02T17:31:38.445Z,13.26
2022-11-02T17:34:16.167Z,13.15
2022-11-02T17:36:47.594Z,13.03
2022-11-02T17:39:21.202Z,12.91
2022-11-02T17:42:13.363Z,12.82
2022-11-02T17:44:42.566Z,12.74
2022-11-02T17:47:18.163Z,12.66
2022-11-02T17:49:47.250Z,12.58
2022-11-02T17:52:19.435Z,12.50
2022-11-02T17:54:48.181Z,12.45
2022-11-02T17:57:17.401Z,12.43
2022-11-02T17:59:45.995Z,12.41
2022-11-02T18:02:15.835Z,12.38
2022-11-02T18:04:44.975Z,12.34
2022-11-02T18:07:13.652Z,12.28
2022-11-02T18:09:42.347Z,12.18
2022-11-02T18:12:15.839Z,12.05
2022-11-02T18:14:44.675Z,11.98
2022-11-02T18:17:13.418Z,11.93
2022-11-02T18:19:42.177Z,11.86
2022-11-02T18:22:13.117Z,11.80
2022-11-02T18:24:42.097Z,11.74
2022-11-02T18:27:13.592Z,11.69
2022-11-02T18:29:42.453Z,11.60
2022-11-02T18:32:11.839Z,11.49
2022-11-02T18:34:40.840Z,11.35
2022-11-02T18:37:09.913Z,11.23
2022-11-02T18:39:38.863Z,11.13
2022-11-02T18:42:08.136Z,11.05
2022-11-02T18:44:40.217Z,10.96
2022-11-02T18:47:09.289Z,10.90
2022-11-02T18:49:41.537Z,10.86
2022-11-02T18:52:10.507Z,10.82
2022-11-02T18:54:39.625Z,10.80
2022-11-02T18:57:09.122Z,10.79
2022-11-02T18:59:38.299Z,10.78
2022-11-02T19:02:07.857Z,10.75
2022-11-02T19:04:36.801Z,10.71
2022-11-02T19:07:24.792Z,10.65
2022-11-02T19:09:53.734Z,10.58
2022-11-02T19:12:25.298Z,10.55
2022-11-02T19:14:54.639Z,10.52
2022-11-02T19:17:25.446Z,10.46
2022-11-02T19:19:54.708Z,10.40
2022-11-02T19:22:26.289Z,10.36
2022-11-02T19:24:55.502Z,10.30
2022-11-02T19:27:25.594Z,10.25
2022-11-02T19:29:54.263Z,10.21
2022-11-02T19:32:25.709Z,10.18
2022-11-02T19:34:54.593Z,10.14
2022-11-02T19:37:23.273Z,10.09
2022-11-02T19:39:52.301Z,10.06
2022-11-02T19:42:21.142Z,10.01
2022-11-02T19:44:50.088Z,9.97
2022-11-02T19:47:18.942Z,9.95
2022-11-02T19:49:47.695Z,9.94
2022-11-02T19:52:16.331Z,9.92
2022-11-02T19:54:44.917Z,9.89
2022-11-02T19:57:13.488Z,9.86
2022-11-02T19:59:42.136Z,9.85
2022-11-02T20:02:11.526Z,9.88
2022-11-02T20:04:42.559Z,9.90
2022-11-02T20:07:12.123Z,9.92
2022-11-02T20:09:40.856Z,9.84
2022-11-02T20:12:09.629Z,9.88
2022-11-02T20:14:38.596Z,9.85
2022-11-02T20:19:56.096Z,9.82
2022-11-02T20:22:24.794Z,9.81
2022-11-02T20:25:02.067Z,9.79
2022-11-02T20:27:43.404Z,9.76
2022-11-02T20:30:12.973Z,9.74
2022-11-02T20:32:42.384Z,9.70
2022-11-02T20:35:13.845Z,9.68
2022-11-02T20:37:42.796Z,9.67
2022-11-02T20:40:11.861Z,9.64
2022-11-02T20:42:40.539Z,9.61
2022-11-02T20:45:09.771Z,9.58
2022-11-02T20:47:39.005Z,9.55
2022-11-02T20:50:10.182Z,9.52
2022-11-02T20:52:41.834Z,9.51
2022-11-02T20:55:12.042Z,9.52
2022-11-02T20:57:40.759Z,9.52
2022-11-02T21:00:11.202Z,9.51
2022-11-02T21:02:40.405Z,9.49
2022-11-02T21:05:09.875Z,9.46
2022-11-02T21:07:38.605Z,9.44
2022-11-02T21:10:09.486Z,9.43
2022-11-02T21:12:56.882Z,9.42
2022-11-02T21:15:25.546Z,9.43
2022-11-02T21:17:54.317Z,9.42
2022-11-02T21:20:38.662Z,9.40
2022-11-02T21:23:08.414Z,9.34
2022-11-02T21:25:37.766Z,9.27
2022-11-02T21:28:06.395Z,9.22
2022-11-02T21:30:34.962Z,9.15
2022-11-02T21:33:07.324Z,9.11
2022-11-02T21:35:39.749Z,9.12
2022-11-02T21:38:08.532Z,9.15
2022-11-02T21:40:37.287Z,9.16
2022-11-02T21:43:06.550Z,9.18
2022-11-02T21:45:38.022Z,9.19
2022-11-02T21:48:07.150Z,9.18
2022-11-02T21:50:35.828Z,9.19
2022-11-02T21:56:06.339Z,9.30
2022-11-02T21:58:35.886Z,9.34
2022-11-02T22:01:32.232Z,9.40
2022-11-02T22:04:01.206Z,9.46
2022-11-02T22:06:33.787Z,9.51
2022-11-02T22:09:02.602Z,9.58
2022-11-02T22:11:31.341Z,9.64
2022-11-02T22:14:01.299Z,9.69
2022-11-02T22:16:35.825Z,9.75
2022-11-02T22:19:08.674Z,9.79
2022-11-02T22:21:46.313Z,9.82
2022-11-02T22:24:16.145Z,9.84
2022-11-02T22:26:44.910Z,9.88
2022-11-02T22:29:13.518Z,9.93
2022-11-02T22:31:42.905Z,9.97
2022-11-02T22:34:13.744Z,9.99
2022-11-02T22:36:44.982Z,9.99
2022-11-02T22:39:14.083Z,9.98
2022-11-02T22:41:47.218Z,9.98
2022-11-02T22:44:19.274Z,10.00
2022-11-02T22:46:50.329Z,10.00
2022-11-02T22:49:20.065Z,9.99
2022-11-02T22:51:50.454Z,9.97
2022-11-02T22:54:20.472Z,9.95
2022-11-02T22:56:49.322Z,9.94
2022-11-02T22:59:17.938Z,9.93
2022-11-02T23:01:46.729Z,9.87
2022-11-02T23:04:15.416Z,9.80
2022-11-02T23:06:44.043Z,9.74
2022-11-02T23:09:12.941Z,9.65
2022-11-02T23:11:41.572Z,9.58
2022-11-02T23:14:17.336Z,9.51
2022-11-02T23:16:47.541Z,9.45
2022-11-02T23:19:31.596Z,9.39
2022-11-02T23:22:21.502Z,9.33
2022-11-02T23:25:11.383Z,9.29
2022-11-02T23:28:06.226Z,9.22
2022-11-02T23:30:55.787Z,9.15
2022-11-02T23:33:29.671Z,9.07
2022-11-02T23:36:11.318Z,9.02
2022-11-02T23:39:00.194Z,9.00
2022-11-02T23:41:30.687Z,8.96
2022-11-02T23:44:12.111Z,8.92
2022-11-02T23:46:46.811Z,8.91
2022-11-02T23:49:17.878Z,8.87
2022-11-02T23:52:05.244Z,8.83
2022-11-02T23:54:52.204Z,8.83
2022-11-02T23:57:22.599Z,8.85
2022-11-02T23:59:51.989Z,8.87
